Pagina principală
METAR-TAF:

METAR-TAF

Aeroporturi :

Avalon, Australia

Latitudine: 38-02S, longitudine: 144-29E, elevație: 8 m

Observații meteo curente

Raportul a fost făcut în urmă cu 19 de minute, la 09:30 UTC
Vânt 3 kt de la Nord-vest
Temperatură 11°C
Umiditate 62%
Presiune 1025 hPa
Vizibilitate de 10 km sau mai mult

METAR: YMAV 280930Z AUTO 31003KT 9999 // NCD 11/04 Q1025 RF00.0/000.0

Ora: 19:49 (09:49 UTC)

Prognoză

Raportul a fost făcut în urmă cu 4 ore și 26 de minute, la 05:23 UTC
Prognoză valabilă de la 28 ora 05 UTC la 29 ora 06 UTC
Vânt 7 kt de la Est
Vizibilitate de 10 km sau mai mult
nu există nori sub 1.500 m și nici cumulonimbus
Devenind
de la 28 ora 06 UTC la 28 ora 08 UTC
Vânt 7 kt de la Nord
Vizibilitate de 10 km sau mai mult
nu există nori sub 1.500 m și nici cumulonimbus

TAF: YMAV 280523Z 2805/2906 10007KT CAVOK BECMG 2806/2808 01007KT CAVOK

Observații și prognoze meteo pentru peste 4.000 de aeroporturi (rapoarte METAR și TAF).

Stațiile disponibile sunt reprezentate pe hartă prin puncte galbene și roșii.

Țineți indicatorul mouse-ului pe punctul dorit pentru a vedea denumirea stației.

Apoi, faceți clic pentru a vedea observațiile și prognozele meteorologice.

Pentru a schimba harta: Pentru mărire, faceți clic pe butoanele verzi cu cruce neagră; pentru micșorare, pe butonul verde cu o liniuță; pentru hărți învecinate, pe săgețile verzi.


METAR-TAF: